sensor_id;sensor_type;location;lat;lon;timestamp;pressure;altitude;pressure_sealevel;temperature;humidity
21276;BME280;36472;52.170;20.884;2023-02-20T00:00:09;100559.66;;;2.95;72.57
21276;BME280;36472;52.170;20.884;2023-02-20T00:03:04;100555.25;;;2.99;71.61
21276;BME280;36472;52.170;20.884;2023-02-20T00:05:34;100554.19;;;3.05;70.75
21276;BME280;36472;52.170;20.884;2023-02-20T00:08:03;100554.09;;;3.08;70.90
21276;BME280;36472;52.170;20.884;2023-02-20T00:10:33;100551.38;;;3.11;70.24
21276;BME280;36472;52.170;20.884;2023-02-20T00:13:01;100546.09;;;3.14;70.00
21276;BME280;36472;52.170;20.884;2023-02-20T00:15:32;100539.88;;;3.20;69.40
21276;BME280;36472;52.170;20.884;2023-02-20T00:18:01;100542.53;;;3.18;69.53
21276;BME280;36472;52.170;20.884;2023-02-20T00:20:30;100533.69;;;3.24;69.22
21276;BME280;36472;52.170;20.884;2023-02-20T00:22:59;100538.03;;;3.23;68.72
21276;BME280;36472;52.170;20.884;2023-02-20T00:25:29;100535.47;;;3.22;68.27
21276;BME280;36472;52.170;20.884;2023-02-20T00:27:58;100526.91;;;3.20;68.38
21276;BME280;36472;52.170;20.884;2023-02-20T00:30:27;100538.09;;;3.22;68.11
21276;BME280;36472;52.170;20.884;2023-02-20T00:32:58;100534.31;;;3.30;67.50
21276;BME280;36472;52.170;20.884;2023-02-20T00:35:27;100537.81;;;3.29;67.02
21276;BME280;36472;52.170;20.884;2023-02-20T00:37:56;100544.81;;;3.27;66.99
21276;BME280;36472;52.170;20.884;2023-02-20T00:40:25;100536.97;;;3.29;66.79
21276;BME280;36472;52.170;20.884;2023-02-20T00:42:54;100542.41;;;3.21;66.89
21276;BME280;36472;52.170;20.884;2023-02-20T00:45:23;100539.81;;;3.21;66.34
21276;BME280;36472;52.170;20.884;2023-02-20T00:47:56;100542.34;;;3.23;67.08
21276;BME280;36472;52.170;20.884;2023-02-20T00:50:25;100548.13;;;3.32;67.13
21276;BME280;36472;52.170;20.884;2023-02-20T00:52:54;100544.72;;;3.30;66.61
21276;BME280;36472;52.170;20.884;2023-02-20T00:55:23;100545.78;;;3.25;66.48
21276;BME280;36472;52.170;20.884;2023-02-20T00:57:52;100544.75;;;3.29;66.74
21276;BME280;36472;52.170;20.884;2023-02-20T01:00:29;100532.72;;;3.26;66.84
21276;BME280;36472;52.170;20.884;2023-02-20T01:03:00;100536.84;;;3.33;66.46
21276;BME280;36472;52.170;20.884;2023-02-20T01:05:29;100533.31;;;3.34;66.07
21276;BME280;36472;52.170;20.884;2023-02-20T01:07:58;100532.44;;;3.35;66.20
21276;BME280;36472;52.170;20.884;2023-02-20T01:10:27;100525.47;;;3.36;66.23
21276;BME280;36472;52.170;20.884;2023-02-20T01:12:56;100533.22;;;3.37;66.30
21276;BME280;36472;52.170;20.884;2023-02-20T01:15:25;100533.91;;;3.43;66.12
21276;BME280;36472;52.170;20.884;2023-02-20T01:17:56;100531.53;;;3.36;66.53
21276;BME280;36472;52.170;20.884;2023-02-20T01:20:27;100532.34;;;3.39;66.37
21276;BME280;36472;52.170;20.884;2023-02-20T01:22:56;100543.56;;;3.39;66.16
21276;BME280;36472;52.170;20.884;2023-02-20T01:25:25;100530.72;;;3.34;66.46
21276;BME280;36472;52.170;20.884;2023-02-20T01:27:54;100527.19;;;3.37;66.00
21276;BME280;36472;52.170;20.884;2023-02-20T01:30:23;100519.44;;;3.35;66.45
21276;BME280;36472;52.170;20.884;2023-02-20T01:32:52;100519.53;;;3.32;66.55
21276;BME280;36472;52.170;20.884;2023-02-20T01:35:21;100523.63;;;3.40;66.33
21276;BME280;36472;52.170;20.884;2023-02-20T01:37:51;100522.72;;;3.41;66.49
21276;BME280;36472;52.170;20.884;2023-02-20T01:40:22;100525.13;;;3.47;66.37
21276;BME280;36472;52.170;20.884;2023-02-20T01:42:51;100527.66;;;3.48;66.45
21276;BME280;36472;52.170;20.884;2023-02-20T01:45:35;100535.53;;;3.47;66.56
21276;BME280;36472;52.170;20.884;2023-02-20T01:48:05;100529.50;;;3.45;66.41
21276;BME280;36472;52.170;20.884;2023-02-20T01:50:40;100533.72;;;3.49;66.57
21276;BME280;36472;52.170;20.884;2023-02-20T01:53:16;100524.13;;;3.51;66.62
21276;BME280;36472;52.170;20.884;2023-02-20T01:55:50;100509.00;;;3.37;66.54
21276;BME280;36472;52.170;20.884;2023-02-20T01:58:25;100519.06;;;3.46;66.59
21276;BME280;36472;52.170;20.884;2023-02-20T02:00:59;100508.03;;;3.40;66.54
21276;BME280;36472;52.170;20.884;2023-02-20T02:03:32;100518.41;;;3.40;67.05
21276;BME280;36472;52.170;20.884;2023-02-20T02:06:07;100519.81;;;3.50;66.65
21276;BME280;36472;52.170;20.884;2023-02-20T02:08:43;100512.06;;;3.48;66.43
21276;BME280;36472;52.170;20.884;2023-02-20T02:11:17;100505.03;;;3.52;66.21
21276;BME280;36472;52.170;20.884;2023-02-20T02:13:46;100515.44;;;3.52;66.56
21276;BME280;36472;52.170;20.884;2023-02-20T02:16:23;100516.22;;;3.54;66.47
21276;BME280;36472;52.170;20.884;2023-02-20T02:18:59;100505.13;;;3.49;66.43
21276;BME280;36472;52.170;20.884;2023-02-20T02:22:17;100494.84;;;3.46;66.60
21276;BME280;36472;52.170;20.884;2023-02-20T02:25:18;100496.84;;;3.37;66.87
21276;BME280;36472;52.170;20.884;2023-02-20T02:28:52;100514.34;;;3.32;67.00
21276;BME280;36472;52.170;20.884;2023-02-20T02:32:09;100500.22;;;3.40;67.32
21276;BME280;36472;52.170;20.884;2023-02-20T02:35:24;100508.25;;;3.33;67.11
21276;BME280;36472;52.170;20.884;2023-02-20T02:38:10;100501.31;;;3.34;67.24
21276;BME280;36472;52.170;20.884;2023-02-20T02:40:53;100504.00;;;3.31;67.72
21276;BME280;36472;52.170;20.884;2023-02-20T02:43:36;100503.84;;;3.35;67.51
21276;BME280;36472;52.170;20.884;2023-02-20T02:46:16;100496.00;;;3.37;67.77
21276;BME280;36472;52.170;20.884;2023-02-20T02:48:53;100505.56;;;3.36;67.46
21276;BME280;36472;52.170;20.884;2023-02-20T02:51:31;100498.50;;;3.40;67.14
21276;BME280;36472;52.170;20.884;2023-02-20T02:54:10;100502.84;;;3.40;67.20
21276;BME280;36472;52.170;20.884;2023-02-20T02:56:43;100505.28;;;3.44;67.24
21276;BME280;36472;52.170;20.884;2023-02-20T02:59:18;100505.25;;;3.46;66.85
21276;BME280;36472;52.170;20.884;2023-02-20T03:01:54;100496.66;;;3.44;66.83
21276;BME280;36472;52.170;20.884;2023-02-20T03:04:28;100497.69;;;3.38;66.93
21276;BME280;36472;52.170;20.884;2023-02-20T03:07:05;100500.19;;;3.41;66.84
21276;BME280;36472;52.170;20.884;2023-02-20T03:09:42;100502.75;;;3.43;67.11
21276;BME280;36472;52.170;20.884;2023-02-20T03:12:14;100498.31;;;3.45;66.56
21276;BME280;36472;52.170;20.884;2023-02-20T03:14:53;100498.50;;;3.40;66.64
21276;BME280;36472;52.170;20.884;2023-02-20T03:17:47;100503.66;;;3.42;67.24
21276;BME280;36472;52.170;20.884;2023-02-20T03:20:21;100497.41;;;3.47;67.30
21276;BME280;36472;52.170;20.884;2023-02-20T03:22:55;100498.19;;;3.49;66.91
21276;BME280;36472;52.170;20.884;2023-02-20T03:25:33;100493.78;;;3.51;66.68
21276;BME280;36472;52.170;20.884;2023-02-20T03:28:08;100496.31;;;3.53;66.78
21276;BME280;36472;52.170;20.884;2023-02-20T03:30:44;100492.84;;;3.54;66.27
21276;BME280;36472;52.170;20.884;2023-02-20T03:33:23;100489.50;;;3.50;66.75
21276;BME280;36472;52.170;20.884;2023-02-20T03:36:15;100492.25;;;3.46;66.63
21276;BME280;36472;52.170;20.884;2023-02-20T03:39:12;100496.75;;;3.41;67.17
21276;BME280;36472;52.170;20.884;2023-02-20T03:42:05;100486.34;;;3.41;67.30
21276;BME280;36472;52.170;20.884;2023-02-20T03:45:04;100488.75;;;3.47;66.74
21276;BME280;36472;52.170;20.884;2023-02-20T03:47:38;100485.38;;;3.43;66.70
21276;BME280;36472;52.170;20.884;2023-02-20T03:50:10;100485.56;;;3.39;66.88
21276;BME280;36472;52.170;20.884;2023-02-20T03:52:59;100482.06;;;3.40;66.82
21276;BME280;36472;52.170;20.884;2023-02-20T03:55:28;100479.50;;;3.38;67.14
21276;BME280;36472;52.170;20.884;2023-02-20T03:58:07;100479.63;;;3.35;67.22
21276;BME280;36472;52.170;20.884;2023-02-20T04:00:43;100478.03;;;3.31;67.21
21276;BME280;36472;52.170;20.884;2023-02-20T04:03:18;100470.97;;;3.34;67.37
21276;BME280;36472;52.170;20.884;2023-02-20T04:05:56;100473.56;;;3.34;67.50
21276;BME280;36472;52.170;20.884;2023-02-20T04:08:35;100476.91;;;3.38;67.36
21276;BME280;36472;52.170;20.884;2023-02-20T04:11:12;100484.81;;;3.35;67.71
21276;BME280;36472;52.170;20.884;2023-02-20T04:13:45;100480.38;;;3.39;67.68
21276;BME280;36472;52.170;20.884;2023-02-20T04:16:16;100471.09;;;3.31;68.38
21276;BME280;36472;52.170;20.884;2023-02-20T04:18:46;100472.56;;;3.39;67.59
21276;BME280;36472;52.170;20.884;2023-02-20T04:21:20;100462.34;;;3.34;67.41
21276;BME280;36472;52.170;20.884;2023-02-20T04:24:01;100462.28;;;3.35;67.43
21276;BME280;36472;52.170;20.884;2023-02-20T04:26:33;100458.72;;;3.38;67.76
21276;BME280;36472;52.170;20.884;2023-02-20T04:29:05;100459.00;;;3.30;67.61
21276;BME280;36472;52.170;20.884;2023-02-20T04:31:36;100453.66;;;3.35;67.84
21276;BME280;36472;52.170;20.884;2023-02-20T04:34:05;100458.91;;;3.33;67.90
21276;BME280;36472;52.170;20.884;2023-02-20T04:36:36;100455.19;;;3.41;67.86
21276;BME280;36472;52.170;20.884;2023-02-20T04:39:05;100444.78;;;3.41;68.05
21276;BME280;36472;52.170;20.884;2023-02-20T04:41:34;100438.63;;;3.43;67.97
21276;BME280;36472;52.170;20.884;2023-02-20T04:44:05;100440.19;;;3.49;68.07
21276;BME280;36472;52.170;20.884;2023-02-20T04:46:55;100431.69;;;3.44;68.48
21276;BME280;36472;52.170;20.884;2023-02-20T04:49:24;100443.03;;;3.41;68.74
21276;BME280;36472;52.170;20.884;2023-02-20T04:51:56;100431.78;;;3.41;68.96
21276;BME280;36472;52.170;20.884;2023-02-20T04:54:26;100423.84;;;3.45;68.95
21276;BME280;36472;52.170;20.884;2023-02-20T04:56:55;100422.81;;;3.49;68.54
21276;BME280;36472;52.170;20.884;2023-02-20T04:59:26;100425.38;;;3.51;68.85
21276;BME280;36472;52.170;20.884;2023-02-20T05:01:55;100430.53;;;3.52;69.18
21276;BME280;36472;52.170;20.884;2023-02-20T05:04:27;100425.38;;;3.51;69.46
21276;BME280;36472;52.170;20.884;2023-02-20T05:06:57;100421.00;;;3.51;69.50
21276;BME280;36472;52.170;20.884;2023-02-20T05:09:26;100430.22;;;3.60;69.22
21276;BME280;36472;52.170;20.884;2023-02-20T05:11:56;100425.03;;;3.60;69.28
21276;BME280;36472;52.170;20.884;2023-02-20T05:14:27;100418.94;;;3.61;69.25
21276;BME280;36472;52.170;20.884;2023-02-20T05:16:56;100414.53;;;3.63;69.07
21276;BME280;36472;52.170;20.884;2023-02-20T05:19:25;100410.47;;;3.56;69.07
21276;BME280;36472;52.170;20.884;2023-02-20T05:21:54;100406.84;;;3.60;69.63
21276;BME280;36472;52.170;20.884;2023-02-20T05:24:42;100405.25;;;3.56;69.00
21276;BME280;36472;52.170;20.884;2023-02-20T05:27:12;100398.34;;;3.55;69.23
21276;BME280;36472;52.170;20.884;2023-02-20T05:29:47;100398.94;;;3.63;69.20
21276;BME280;36472;52.170;20.884;2023-02-20T05:32:18;100398.03;;;3.64;69.33
21276;BME280;36472;52.170;20.884;2023-02-20T05:34:47;100400.66;;;3.64;69.30
21276;BME280;36472;52.170;20.884;2023-02-20T05:37:18;100410.00;;;3.68;68.95
21276;BME280;36472;52.170;20.884;2023-02-20T05:39:48;100412.44;;;3.73;69.11
21276;BME280;36472;52.170;20.884;2023-02-20T05:42:18;100414.91;;;3.78;68.78
21276;BME280;36472;52.170;20.884;2023-02-20T05:44:49;100402.69;;;3.80;68.70
21276;BME280;36472;52.170;20.884;2023-02-20T05:47:18;100398.31;;;3.80;68.49
21276;BME280;36472;52.170;20.884;2023-02-20T05:49:47;100393.16;;;3.79;68.37
21276;BME280;36472;52.170;20.884;2023-02-20T05:52:16;100384.38;;;3.83;68.85
21276;BME280;36472;52.170;20.884;2023-02-20T05:54:46;100383.69;;;3.78;68.60
21276;BME280;36472;52.170;20.884;2023-02-20T05:57:15;100376.56;;;3.83;68.49
21276;BME280;36472;52.170;20.884;2023-02-20T05:59:44;100375.66;;;3.84;68.72
21276;BME280;36472;52.170;20.884;2023-02-20T06:02:15;100376.38;;;3.87;68.71
21276;BME280;36472;52.170;20.884;2023-02-20T06:04:43;100371.38;;;3.83;68.79
21276;BME280;36472;52.170;20.884;2023-02-20T06:07:13;100365.13;;;3.87;68.99
21276;BME280;36472;52.170;20.884;2023-02-20T06:09:42;100367.91;;;3.82;69.01
21276;BME280;36472;52.170;20.884;2023-02-20T06:12:12;100363.56;;;3.83;69.46
21276;BME280;36472;52.170;20.884;2023-02-20T06:14:41;100369.31;;;3.91;69.54
21276;BME280;36472;52.170;20.884;2023-02-20T06:17:10;100367.31;;;3.98;69.39
21276;BME280;36472;52.170;20.884;2023-02-20T06:19:40;100363.78;;;4.00;69.40
21276;BME280;36472;52.170;20.884;2023-02-20T06:22:09;100347.19;;;4.03;69.32
21276;BME280;36472;52.170;20.884;2023-02-20T06:24:38;100350.59;;;4.05;69.31
21276;BME280;36472;52.170;20.884;2023-02-20T06:27:07;100356.88;;;3.99;69.92
21276;BME280;36472;52.170;20.884;2023-02-20T06:29:36;100353.72;;;4.13;69.27
21276;BME280;36472;52.170;20.884;2023-02-20T06:32:05;100348.28;;;4.19;69.59
21276;BME280;36472;52.170;20.884;2023-02-20T06:34:34;100350.06;;;4.19;69.12
21276;BME280;36472;52.170;20.884;2023-02-20T06:37:05;100342.97;;;4.22;69.13
21276;BME280;36472;52.170;20.884;2023-02-20T06:39:34;100335.78;;;4.29;68.96
21276;BME280;36472;52.170;20.884;2023-02-20T06:42:04;100326.16;;;4.31;69.29
21276;BME280;36472;52.170;20.884;2023-02-20T06:44:33;100334.44;;;4.41;69.32
21276;BME280;36472;52.170;20.884;2023-02-20T06:47:02;100326.53;;;4.42;68.82
21276;BME280;36472;52.170;20.884;2023-02-20T06:49:35;100331.75;;;4.42;68.84
21276;BME280;36472;52.170;20.884;2023-02-20T06:52:06;100335.09;;;4.46;69.40
21276;BME280;36472;52.170;20.884;2023-02-20T06:54:36;100334.94;;;4.49;69.32
21276;BME280;36472;52.170;20.884;2023-02-20T06:57:05;100316.47;;;4.55;69.08
21276;BME280;36472;52.170;20.884;2023-02-20T06:59:34;100318.91;;;4.60;69.40
21276;BME280;36472;52.170;20.884;2023-02-20T07:02:10;100321.38;;;4.63;69.23
21276;BME280;36472;52.170;20.884;2023-02-20T07:04:39;100307.31;;;4.67;68.99
21276;BME280;36472;52.170;20.884;2023-02-20T07:07:10;100312.84;;;4.80;68.41
21276;BME280;36472;52.170;20.884;2023-02-20T07:09:39;100320.00;;;4.75;68.86
21276;BME280;36472;52.170;20.884;2023-02-20T07:12:11;100319.69;;;4.82;68.96
21276;BME280;36472;52.170;20.884;2023-02-20T07:14:40;100309.72;;;4.92;68.37
21276;BME280;36472;52.170;20.884;2023-02-20T07:17:09;100301.41;;;4.84;68.61
21276;BME280;36472;52.170;20.884;2023-02-20T07:19:38;100294.28;;;4.87;68.71
21276;BME280;36472;52.170;20.884;2023-02-20T07:22:07;100285.59;;;4.89;68.51
21276;BME280;36472;52.170;20.884;2023-02-20T07:24:37;100300.16;;;4.93;68.55
21276;BME280;36472;52.170;20.884;2023-02-20T07:27:08;100299.78;;;5.00;68.90
21276;BME280;36472;52.170;20.884;2023-02-20T07:29:38;100304.03;;;5.03;68.87
21276;BME280;36472;52.170;20.884;2023-02-20T07:32:08;100282.78;;;5.12;68.40
21276;BME280;36472;52.170;20.884;2023-02-20T07:34:37;100283.59;;;5.14;68.12
21276;BME280;36472;52.170;20.884;2023-02-20T07:37:07;100282.31;;;5.23;67.94
21276;BME280;36472;52.170;20.884;2023-02-20T07:39:37;100283.25;;;5.41;68.11
21276;BME280;36472;52.170;20.884;2023-02-20T07:42:06;100295.16;;;5.47;67.86
21276;BME280;36472;52.170;20.884;2023-02-20T07:44:47;100298.09;;;5.39;67.60
21276;BME280;36472;52.170;20.884;2023-02-20T07:47:17;100299.38;;;5.49;67.57
21276;BME280;36472;52.170;20.884;2023-02-20T07:49:45;100297.69;;;5.48;67.41
21276;BME280;36472;52.170;20.884;2023-02-20T07:52:15;100283.81;;;5.48;67.54
21276;BME280;36472;52.170;20.884;2023-02-20T07:54:45;100270.44;;;5.55;67.69
21276;BME280;36472;52.170;20.884;2023-02-20T07:57:14;100270.00;;;5.65;67.21
21276;BME280;36472;52.170;20.884;2023-02-20T07:59:43;100259.50;;;5.66;67.68
21276;BME280;36472;52.170;20.884;2023-02-20T08:02:12;100257.75;;;5.84;67.01
21276;BME280;36472;52.170;20.884;2023-02-20T08:04:41;100246.41;;;5.85;67.04
21276;BME280;36472;52.170;20.884;2023-02-20T08:07:10;100242.59;;;5.92;66.68
21276;BME280;36472;52.170;20.884;2023-02-20T08:09:39;100237.53;;;6.08;67.00
21276;BME280;36472;52.170;20.884;2023-02-20T08:12:11;100226.75;;;6.14;66.36
21276;BME280;36472;52.170;20.884;2023-02-20T08:14:43;100218.72;;;6.19;66.25
21276;BME280;36472;52.170;20.884;2023-02-20T08:17:12;100218.78;;;6.17;66.40
21276;BME280;36472;52.170;20.884;2023-02-20T08:19:41;100207.44;;;6.18;66.76
21276;BME280;36472;52.170;20.884;2023-02-20T08:22:11;100199.16;;;6.10;66.66
21276;BME280;36472;52.170;20.884;2023-02-20T08:24:39;100205.88;;;6.14;66.67
21276;BME280;36472;52.170;20.884;2023-02-20T08:27:09;100203.53;;;6.10;67.09
21276;BME280;36472;52.170;20.884;2023-02-20T08:29:39;100201.84;;;6.09;67.18
21276;BME280;36472;52.170;20.884;2023-02-20T08:32:08;100199.97;;;6.11;67.37
21276;BME280;36472;52.170;20.884;2023-02-20T08:34:37;100194.88;;;5.90;68.44
21276;BME280;36472;52.170;20.884;2023-02-20T08:37:06;100176.91;;;5.84;68.40
21276;BME280;36472;52.170;20.884;2023-02-20T08:39:36;100178.13;;;5.77;69.94
21276;BME280;36472;52.170;20.884;2023-02-20T08:42:05;100176.13;;;5.65;71.73
21276;BME280;36472;52.170;20.884;2023-02-20T08:44:34;100176.72;;;5.52;72.97
21276;BME280;36472;52.170;20.884;2023-02-20T08:47:05;100171.09;;;5.42;73.89
21276;BME280;36472;52.170;20.884;2023-02-20T08:49:34;100172.03;;;5.22;75.35
21276;BME280;36472;52.170;20.884;2023-02-20T08:52:04;100157.66;;;5.14;77.07
21276;BME280;36472;52.170;20.884;2023-02-20T08:54:33;100166.69;;;5.06;79.03
21276;BME280;36472;52.170;20.884;2023-02-20T08:57:02;100160.91;;;5.00;80.42
21276;BME280;36472;52.170;20.884;2023-02-20T08:59:31;100158.19;;;4.84;81.26
21276;BME280;36472;52.170;20.884;2023-02-20T09:02:00;100146.13;;;4.81;82.92
21276;BME280;36472;52.170;20.884;2023-02-20T09:04:31;100142.50;;;4.85;83.41
21276;BME280;36472;52.170;20.884;2023-02-20T09:07:00;100137.47;;;4.81;83.93
21276;BME280;36472;52.170;20.884;2023-02-20T09:09:29;100127.00;;;4.82;85.20
21276;BME280;36472;52.170;20.884;2023-02-20T09:11:58;100120.31;;;4.77;86.11
21276;BME280;36472;52.170;20.884;2023-02-20T09:14:28;100110.03;;;4.74;86.81
21276;BME280;36472;52.170;20.884;2023-02-20T09:16:57;100098.63;;;4.76;87.97
21276;BME280;36472;52.170;20.884;2023-02-20T09:19:26;100096.03;;;4.76;88.71
21276;BME280;36472;52.170;20.884;2023-02-20T09:21:56;100089.09;;;4.77;88.43
21276;BME280;36472;52.170;20.884;2023-02-20T09:24:25;100085.97;;;4.68;88.82
21276;BME280;36472;52.170;20.884;2023-02-20T09:26:59;100081.91;;;4.63;89.35
21276;BME280;36472;52.170;20.884;2023-02-20T09:29:28;100073.09;;;4.46;90.25
21276;BME280;36472;52.170;20.884;2023-02-20T09:31:57;100071.47;;;4.44;90.72
21276;BME280;36472;52.170;20.884;2023-02-20T09:34:27;100042.06;;;4.42;90.84
21276;BME280;36472;52.170;20.884;2023-02-20T09:36:57;100033.44;;;4.41;91.49
21276;BME280;36472;52.170;20.884;2023-02-20T09:39:26;100022.94;;;4.43;92.15
21276;BME280;36472;52.170;20.884;2023-02-20T09:42:14;100009.00;;;4.44;92.01
21276;BME280;36472;52.170;20.884;2023-02-20T09:44:58;100000.63;;;4.37;93.24
21276;BME280;36472;52.170;20.884;2023-02-20T09:47:44;99995.81;;;4.29;93.77
21276;BME280;36472;52.170;20.884;2023-02-20T09:50:35;99986.09;;;4.33;94.10
21276;BME280;36472;52.170;20.884;2023-02-20T09:53:18;99971.19;;;4.37;94.51
21276;BME280;36472;52.170;20.884;2023-02-20T09:55:50;99961.78;;;4.34;94.33
21276;BME280;36472;52.170;20.884;2023-02-20T09:58:27;99951.94;;;4.41;95.12
21276;BME280;36472;52.170;20.884;2023-02-20T10:01:01;99935.91;;;4.31;95.15
21276;BME280;36472;52.170;20.884;2023-02-20T10:03:41;99921.34;;;4.27;95.85
21276;BME280;36472;52.170;20.884;2023-02-20T10:06:20;99930.97;;;4.25;97.09
21276;BME280;36472;52.170;20.884;2023-02-20T10:08:52;99931.47;;;4.33;97.23
21276;BME280;36472;52.170;20.884;2023-02-20T10:11:50;99917.06;;;4.26;97.02
21276;BME280;36472;52.170;20.884;2023-02-20T10:14:57;99902.22;;;4.28;96.95
21276;BME280;36472;52.170;20.884;2023-02-20T10:17:41;99896.81;;;4.33;96.40
21276;BME280;36472;52.170;20.884;2023-02-20T10:20:22;99903.38;;;4.22;96.08
21276;BME280;36472;52.170;20.884;2023-02-20T10:23:01;99901.75;;;4.01;95.87
21276;BME280;36472;52.170;20.884;2023-02-20T10:25:41;99891.84;;;3.90;96.07
21276;BME280;36472;52.170;20.884;2023-02-20T10:28:14;99889.94;;;3.93;96.97
21276;BME280;36472;52.170;20.884;2023-02-20T10:30:50;99885.00;;;3.87;96.81
21276;BME280;36472;52.170;20.884;2023-02-20T10:33:32;99872.16;;;3.84;97.64
21276;BME280;36472;52.170;20.884;2023-02-20T10:36:11;99885.38;;;3.80;97.58
21276;BME280;36472;52.170;20.884;2023-02-20T10:38:49;99861.22;;;3.78;97.66
21276;BME280;36472;52.170;20.884;2023-02-20T10:41:28;99862.63;;;3.85;98.38
21276;BME280;36472;52.170;20.884;2023-02-20T10:44:05;99856.78;;;3.80;98.35
21276;BME280;36472;52.170;20.884;2023-02-20T10:46:44;99841.19;;;3.80;98.84
21276;BME280;36472;52.170;20.884;2023-02-20T10:49:23;99840.06;;;3.66;99.17
21276;BME280;36472;52.170;20.884;2023-02-20T10:51:58;99838.22;;;3.68;99.98
21276;BME280;36472;52.170;20.884;2023-02-20T10:54:36;99832.91;;;3.71;100.00
21276;BME280;36472;52.170;20.884;2023-02-20T10:57:15;99831.38;;;3.67;100.00
21276;BME280;36472;52.170;20.884;2023-02-20T10:59:50;99809.50;;;3.52;100.00
21276;BME280;36472;52.170;20.884;2023-02-20T11:02:26;99798.81;;;3.59;100.00
21276;BME280;36472;52.170;20.884;2023-02-20T11:05:03;99787.19;;;3.67;100.00
21276;BME280;36472;52.170;20.884;2023-02-20T11:07:34;99788.28;;;3.62;100.00
21276;BME280;36472;52.170;20.884;2023-02-20T11:10:04;99784.50;;;3.69;100.00
21276;BME280;36472;52.170;20.884;2023-02-20T11:12:39;99779.47;;;3.66;100.00
21276;BME280;36472;52.170;20.884;2023-02-20T11:15:14;99773.13;;;3.71;100.00
21276;BME280;36472;52.170;20.884;2023-02-20T11:17:44;99764.56;;;3.69;100.00
21276;BME280;36472;52.170;20.884;2023-02-20T11:20:43;99744.69;;;3.68;100.00
21276;BME280;36472;52.170;20.884;2023-02-20T11:23:38;99716.81;;;3.53;100.00
21276;BME280;36472;52.170;20.884;2023-02-20T11:26:28;99599.75;;;3.39;100.00
21276;BME280;36472;52.170;20.884;2023-02-20T11:29:05;99643.44;;;3.48;100.00
21276;BME280;36472;52.170;20.884;2023-02-20T11:31:39;99617.03;;;3.57;100.00
21276;BME280;36472;52.170;20.884;2023-02-20T11:34:16;99625.22;;;3.67;100.00
21276;BME280;36472;52.170;20.884;2023-02-20T11:36:50;99612.69;;;3.58;100.00
21276;BME280;36472;52.170;20.884;2023-02-20T11:39:23;99625.97;;;3.69;100.00
21276;BME280;36472;52.170;20.884;2023-02-20T11:42:11;99599.41;;;3.81;100.00
21276;BME280;36472;52.170;20.884;2023-02-20T11:44:44;99593.88;;;3.87;100.00
21276;BME280;36472;52.170;20.884;2023-02-20T11:47:23;99568.56;;;3.91;100.00
21276;BME280;36472;52.170;20.884;2023-02-20T11:50:11;99558.47;;;4.02;100.00
21276;BME280;36472;52.170;20.884;2023-02-20T11:52:58;99558.09;;;4.10;100.00
21276;BME280;36472;52.170;20.884;2023-02-20T11:55:29;99540.38;;;4.17;100.00
21276;BME280;36472;52.170;20.884;2023-02-20T11:57:59;99543.69;;;4.20;100.00
21276;BME280;36472;52.170;20.884;2023-02-20T12:00:46;99517.91;;;4.31;100.00
21276;BME280;36472;52.170;20.884;2023-02-20T12:03:22;99507.13;;;4.39;100.00
21276;BME280;36472;52.170;20.884;2023-02-20T12:05:51;99513.22;;;4.38;100.00
21276;BME280;36472;52.170;20.884;2023-02-20T12:08:36;99486.22;;;4.41;100.00
21276;BME280;36472;52.170;20.884;2023-02-20T12:11:14;99460.88;;;4.44;100.00
21276;BME280;36472;52.170;20.884;2023-02-20T12:13:46;99468.75;;;4.59;100.00
21276;BME280;36472;52.170;20.884;2023-02-20T12:16:57;99432.66;;;4.68;100.00
21276;BME280;36472;52.170;20.884;2023-02-20T12:19:46;99427.56;;;4.81;100.00
21276;BME280;36472;52.170;20.884;2023-02-20T12:22:30;99401.53;;;4.81;100.00
21276;BME280;36472;52.170;20.884;2023-02-20T12:25:21;99409.41;;;4.96;100.00
21276;BME280;36472;52.170;20.884;2023-02-20T12:28:06;99427.00;;;5.06;100.00
21276;BME280;36472;52.170;20.884;2023-02-20T12:31:01;99425.16;;;5.09;100.00
21276;BME280;36472;52.170;20.884;2023-02-20T12:33:56;99424.72;;;5.16;100.00
21276;BME280;36472;52.170;20.884;2023-02-20T12:36:35;99421.16;;;5.17;100.00
21276;BME280;36472;52.170;20.884;2023-02-20T12:39:22;99406.16;;;5.37;100.00
21276;BME280;36472;52.170;20.884;2023-02-20T12:42:09;99398.72;;;5.45;100.00
21276;BME280;36472;52.170;20.884;2023-02-20T12:45:13;99419.09;;;5.53;100.00
21276;BME280;36472;52.170;20.884;2023-02-20T12:47:45;99417.13;;;5.56;100.00
21276;BME280;36472;52.170;20.884;2023-02-20T12:50:49;99418.25;;;5.67;100.00
21276;BME280;36472;52.170;20.884;2023-02-20T12:53:49;99412.41;;;5.77;100.00
21276;BME280;36472;52.170;20.884;2023-02-20T12:56:35;99410.91;;;5.73;100.00
21276;BME280;36472;52.170;20.884;2023-02-20T12:59:24;99409.22;;;5.87;100.00
21276;BME280;36472;52.170;20.884;2023-02-20T13:02:01;99409.59;;;5.80;100.00
21276;BME280;36472;52.170;20.884;2023-02-20T13:04:45;99416.00;;;5.89;100.00
21276;BME280;36472;52.170;20.884;2023-02-20T13:07:23;99409.03;;;5.90;100.00
21276;BME280;36472;52.170;20.884;2023-02-20T13:10:03;99411.97;;;5.99;100.00
21276;BME280;36472;52.170;20.884;2023-02-20T13:12:34;99416.59;;;5.94;100.00
21276;BME280;36472;52.170;20.884;2023-02-20T13:15:24;99414.81;;;6.09;100.00
21276;BME280;36472;52.170;20.884;2023-02-20T13:18:05;99406.25;;;6.07;99.11
21276;BME280;36472;52.170;20.884;2023-02-20T13:20:44;99398.69;;;6.17;99.65
21276;BME280;36472;52.170;20.884;2023-02-20T13:23:32;99396.91;;;6.17;99.43
21276;BME280;36472;52.170;20.884;2023-02-20T13:29:14;99384.69;;;6.32;98.62
21276;BME280;36472;52.170;20.884;2023-02-20T13:31:47;99387.94;;;6.36;98.61
21276;BME280;36472;52.170;20.884;2023-02-20T13:34:36;99390.13;;;6.42;97.99